createdAt,value
2019-03-28T00:03:30.759Z,103.77
2019-03-28T00:08:32.475Z,95.63
2019-03-28T00:13:34.502Z,96.57
2019-03-28T00:18:36.217Z,89.03
2019-03-28T00:23:39.930Z,88.60
2019-03-28T00:28:41.737Z,88.67
2019-03-28T00:33:44.371Z,104.50
2019-03-28T00:38:46.057Z,94.43
2019-03-28T00:43:47.768Z,94.50
2019-03-28T00:48:50.572Z,87.17
2019-03-28T00:53:52.179Z,82.53
2019-03-28T00:58:53.902Z,91.37
2019-03-28T01:03:55.623Z,90.30
2019-03-28T01:08:57.237Z,83.00
2019-03-28T01:13:59.014Z,83.80
2019-03-28T01:19:00.739Z,80.70
2019-03-28T01:24:02.538Z,79.97
2019-03-28T01:29:04.242Z,82.63
2019-03-28T01:34:06.363Z,83.70
2019-03-28T01:39:08.017Z,89.47
2019-03-28T01:44:10.400Z,88.03
2019-03-28T01:49:12.015Z,80.63
2019-03-28T01:54:13.626Z,87.00
2019-03-28T01:59:15.334Z,85.73
2019-03-28T02:04:16.980Z,81.63
2019-03-28T02:09:18.840Z,84.47
2019-03-28T02:14:20.449Z,75.27
2019-03-28T02:19:22.133Z,78.77
2019-03-28T02:24:23.741Z,83.17
2019-03-28T02:29:25.389Z,79.13
2019-03-28T02:34:26.994Z,69.57
2019-03-28T02:39:28.720Z,68.77
2019-03-28T02:44:30.454Z,68.40
2019-03-28T02:49:32.102Z,64.90
2019-03-28T02:54:33.867Z,62.93
2019-03-28T02:59:35.467Z,60.00
2019-03-28T03:04:37.207Z,65.07
2019-03-28T03:09:39.102Z,60.70
2019-03-28T03:14:40.705Z,54.10
2019-03-28T03:19:42.442Z,60.57
2019-03-28T03:24:44.042Z,52.83
2019-03-28T03:29:45.645Z,56.17
2019-03-28T03:34:47.302Z,54.20
2019-03-28T03:39:48.916Z,54.90
2019-03-28T03:44:50.898Z,53.30
2019-03-28T03:49:52.549Z,61.60
2019-03-28T03:54:54.146Z,57.77
2019-03-28T03:59:55.821Z,56.13
2019-03-28T04:04:57.473Z,58.47
2019-03-28T04:09:59.179Z,61.80
2019-03-28T04:15:01.287Z,59.67
2019-03-28T04:20:05.625Z,58.37
2019-03-28T04:25:07.800Z,61.90
2019-03-28T04:30:09.910Z,66.07
2019-03-28T04:35:11.523Z,65.17
2019-03-28T04:40:13.332Z,68.73
2019-03-28T04:45:15.007Z,58.73
2019-03-28T04:50:16.705Z,59.97
2019-03-28T04:55:18.611Z,58.17
2019-03-28T05:00:20.935Z,80.33
2019-03-28T05:05:22.547Z,79.70
2019-03-28T05:10:24.150Z,69.37
2019-03-28T05:15:25.788Z,87.10
2019-03-28T05:20:27.397Z,76.77
2019-03-28T05:25:29.043Z,84.83
2019-03-28T05:30:30.787Z,79.33
2019-03-28T05:35:32.385Z,78.53
2019-03-28T05:40:33.983Z,72.43
2019-03-28T05:45:35.831Z,84.13
2019-03-28T05:50:37.499Z,86.67
2019-03-28T05:55:39.099Z,83.17
2019-03-28T06:00:40.751Z,79.80
2019-03-28T06:05:42.558Z,64.50
2019-03-28T06:10:44.279Z,72.17
2019-03-28T06:15:45.965Z,61.77
2019-03-28T06:20:47.770Z,58.03
2019-03-28T06:25:49.611Z,78.50
2019-03-28T06:30:51.503Z,75.63
2019-03-28T06:35:53.108Z,79.10
2019-03-28T06:40:54.720Z,78.60
2019-03-28T06:45:56.451Z,74.33
